createdAt,value
2022-10-19T00:01:30.397Z,18.73
2022-10-19T00:03:59.963Z,17.52
2022-10-19T00:06:31.971Z,19.50
2022-10-19T00:09:03.792Z,17.85
2022-10-19T00:11:35.129Z,17.67
2022-10-19T00:14:04.441Z,16.35
2022-10-19T00:16:39.641Z,17.58
2022-10-19T00:19:13.012Z,17.90
2022-10-19T00:21:42.318Z,15.80
2022-10-19T00:24:12.409Z,15.40
2022-10-19T00:26:40.917Z,18.42
2022-10-19T00:29:09.894Z,18.15
2022-10-19T00:31:38.232Z,17.45
2022-10-19T00:34:06.970Z,17.50
2022-10-19T00:36:39.937Z,17.13
2022-10-19T00:39:13.832Z,18.40
2022-10-19T00:41:43.243Z,17.25
2022-10-19T00:45:01.880Z,17.13
2022-10-19T00:47:31.280Z,16.92
2022-10-19T00:50:01.323Z,16.30
2022-10-19T00:52:30.257Z,16.45
2022-10-19T00:55:00.911Z,17.45
2022-10-19T00:57:32.373Z,16.73
2022-10-19T01:00:03.677Z,15.05
2022-10-19T01:02:32.313Z,14.85
2022-10-19T01:05:02.537Z,16.05
2022-10-19T01:07:30.944Z,16.40
2022-10-19T01:10:02.066Z,15.38
2022-10-19T01:12:52.120Z,13.80
2022-10-19T01:15:33.010Z,14.20
2022-10-19T01:18:12.230Z,14.85
2022-10-19T01:21:04.359Z,15.75
2022-10-19T01:24:21.388Z,17.03
2022-10-19T01:27:24.709Z,17.10
2022-10-19T01:32:54.203Z,16.98
2022-10-19T01:35:33.593Z,17.05
2022-10-19T01:38:15.751Z,17.85
2022-10-19T01:40:53.467Z,14.75
2022-10-19T01:43:31.088Z,16.25
2022-10-19T01:46:08.306Z,16.35
2022-10-19T01:48:40.336Z,13.82
2022-10-19T01:51:14.539Z,18.38
2022-10-19T01:53:48.202Z,13.95
2022-10-19T01:56:21.158Z,14.85
2022-10-19T01:58:51.564Z,14.82
2022-10-19T02:01:25.591Z,14.07
2022-10-19T02:03:56.325Z,13.43
2022-10-19T02:06:25.319Z,13.80
2022-10-19T02:08:55.187Z,12.82
2022-10-19T02:11:25.052Z,14.20
2022-10-19T02:13:59.933Z,13.38
2022-10-19T02:16:37.867Z,13.00
2022-10-19T02:19:08.665Z,13.75
2022-10-19T02:21:36.948Z,13.88
2022-10-19T02:24:06.155Z,13.70
2022-10-19T02:26:34.980Z,14.88
2022-10-19T02:29:06.337Z,12.85
2022-10-19T02:31:36.682Z,13.15
2022-10-19T02:34:05.992Z,14.85
2022-10-19T02:36:34.622Z,15.45
2022-10-19T02:39:03.283Z,14.18
2022-10-19T02:41:38.095Z,13.93
2022-10-19T02:44:14.931Z,13.05
2022-10-19T02:46:47.390Z,13.57
2022-10-19T02:49:16.907Z,14.52
2022-10-19T02:52:00.449Z,14.02
2022-10-19T02:54:29.602Z,13.77
2022-10-19T02:56:58.396Z,13.68
2022-10-19T02:59:27.362Z,13.25
2022-10-19T03:01:57.226Z,13.25
2022-10-19T03:04:25.602Z,13.45
2022-10-19T03:06:53.901Z,12.40
2022-10-19T03:09:22.340Z,12.77
2022-10-19T03:11:50.676Z,13.93
2022-10-19T03:14:18.968Z,11.60
2022-10-19T03:16:47.656Z,13.55
2022-10-19T03:19:17.993Z,12.30
2022-10-19T03:21:46.551Z,12.98
2022-10-19T03:24:15.034Z,13.93
2022-10-19T03:26:43.428Z,12.75
2022-10-19T03:29:11.692Z,13.45
2022-10-19T03:31:40.085Z,12.63
2022-10-19T03:34:08.393Z,13.10
2022-10-19T03:36:40.003Z,14.15
2022-10-19T03:39:13.506Z,13.43
2022-10-19T03:41:42.548Z,14.70
2022-10-19T03:44:12.649Z,12.95
2022-10-19T03:46:42.064Z,13.27
2022-10-19T03:49:11.176Z,11.95
2022-10-19T03:51:41.428Z,12.30
2022-10-19T03:54:14.966Z,13.65
2022-10-19T03:56:44.194Z,13.43
2022-10-19T03:59:16.027Z,14.23
2022-10-19T04:01:47.350Z,14.20
2022-10-19T04:04:18.636Z,13.13
2022-10-19T04:06:51.003Z,13.23
2022-10-19T04:09:23.434Z,13.85
2022-10-19T04:11:52.001Z,12.48
2022-10-19T04:14:32.195Z,13.65
2022-10-19T04:17:02.087Z,14.18
2022-10-19T04:19:31.065Z,23.88
2022-10-19T04:22:00.802Z,23.10
2022-10-19T04:24:29.627Z,36.95
2022-10-19T04:26:58.242Z,39.92
2022-10-19T04:29:30.005Z,40.03
2022-10-19T04:31:59.714Z,28.38
2022-10-19T04:34:28.242Z,30.73
2022-10-19T04:36:59.243Z,32.50
2022-10-19T04:39:29.107Z,29.85
2022-10-19T04:41:57.578Z,39.92
2022-10-19T04:44:26.170Z,27.88
2022-10-19T04:46:54.771Z,32.53
2022-10-19T04:49:23.307Z,35.38
2022-10-19T04:51:51.753Z,27.10
2022-10-19T04:54:20.069Z,29.83
2022-10-19T04:56:50.098Z,27.33
2022-10-19T04:59:18.426Z,25.05
2022-10-19T05:01:47.532Z,30.35
2022-10-19T05:04:16.053Z,33.78
2022-10-19T05:06:44.467Z,27.30
2022-10-19T05:09:12.835Z,28.15
2022-10-19T05:11:41.087Z,26.23
2022-10-19T05:14:10.811Z,30.83
2022-10-19T05:16:39.122Z,28.52
2022-10-19T05:19:07.611Z,30.95
2022-10-19T05:21:36.102Z,28.45
2022-10-19T05:24:04.536Z,31.92
2022-10-19T05:26:33.181Z,25.88
2022-10-19T05:29:04.365Z,28.65
2022-10-19T05:31:35.364Z,31.17
2022-10-19T05:34:05.049Z,36.03
2022-10-19T05:36:36.839Z,29.05
2022-10-19T05:39:08.782Z,28.33
2022-10-19T05:41:37.103Z,33.65
2022-10-19T05:44:06.729Z,29.27
2022-10-19T05:46:36.464Z,24.52
2022-10-19T05:49:05.074Z,26.42
2022-10-19T05:51:33.331Z,24.33
2022-10-19T05:54:04.932Z,32.03
2022-10-19T05:56:34.148Z,29.83
2022-10-19T05:59:06.551Z,34.40
2022-10-19T06:01:37.494Z,22.67
2022-10-19T06:04:07.360Z,25.25
2022-10-19T06:06:36.066Z,21.60
2022-10-19T06:09:05.124Z,32.08
2022-10-19T06:11:36.733Z,27.92
2022-10-19T06:14:08.110Z,34.63
2022-10-19T06:16:38.033Z,31.70
2022-10-19T06:19:07.571Z,29.15
2022-10-19T06:21:38.611Z,27.98
2022-10-19T06:24:08.493Z,33.85
2022-10-19T06:26:36.898Z,31.25
2022-10-19T06:29:06.161Z,21.75
2022-10-19T06:31:38.360Z,25.98
2022-10-19T06:34:07.735Z,23.90
2022-10-19T06:36:36.558Z,21.45
2022-10-19T06:39:06.008Z,22.20
2022-10-19T06:41:34.967Z,23.20
2022-10-19T06:44:19.669Z,22.63
2022-10-19T06:46:49.680Z,24.48
2022-10-19T06:49:18.085Z,22.23
2022-10-19T06:51:46.456Z,26.88
2022-10-19T06:54:16.481Z,25.38
2022-10-19T06:56:44.887Z,26.13
2022-10-19T06:59:14.821Z,26.77
2022-10-19T07:01:43.663Z,27.55
2022-10-19T07:04:13.732Z,30.42
2022-10-19T07:06:42.349Z,30.92
2022-10-19T07:09:10.624Z,29.17
2022-10-19T07:11:44.784Z,28.98
2022-10-19T07:14:14.253Z,33.10
2022-10-19T07:16:42.820Z,32.05
2022-10-19T07:19:13.634Z,29.80
2022-10-19T07:21:43.780Z,26.58
2022-10-19T07:24:12.493Z,29.35
2022-10-19T07:26:40.900Z,31.75
2022-10-19T07:29:09.320Z,30.73
2022-10-19T07:31:37.576Z,38.90
2022-10-19T07:34:06.942Z,34.28
2022-10-19T07:36:39.633Z,31.83
2022-10-19T07:41:37.482Z,26.83
2022-10-19T07:44:08.211Z,26.05
2022-10-19T07:46:39.361Z,28.35
2022-10-19T07:49:11.003Z,26.20
2022-10-19T07:51:41.530Z,27.47
2022-10-19T07:54:10.504Z,29.65
2022-10-19T07:56:41.380Z,26.75
2022-10-19T07:59:11.453Z,27.58
2022-10-19T08:01:44.102Z,26.10
2022-10-19T08:07:02.805Z,28.00
2022-10-19T08:09:52.070Z,26.33
2022-10-19T08:12:22.237Z,28.08
2022-10-19T08:14:50.919Z,26.92
2022-10-19T08:17:19.518Z,28.17
2022-10-19T08:19:48.035Z,28.70
2022-10-19T08:22:17.788Z,29.45
2022-10-19T08:24:46.262Z,33.08
2022-10-19T08:27:15.566Z,39.92
2022-10-19T08:29:43.901Z,64.55
2022-10-19T08:32:12.960Z,30.70
2022-10-19T08:34:41.616Z,32.50
2022-10-19T08:37:20.065Z,41.00
2022-10-19T08:40:00.091Z,36.13
2022-10-19T08:42:47.762Z,38.55
2022-10-19T08:45:28.425Z,39.50
2022-10-19T08:48:23.930Z,35.58
2022-10-19T08:50:52.869Z,34.92
2022-10-19T08:53:33.692Z,34.97
2022-10-19T08:56:51.713Z,34.45
2022-10-19T08:59:39.241Z,33.15
2022-10-19T09:02:18.982Z,36.90
2022-10-19T09:04:56.545Z,44.50
2022-10-19T09:07:29.056Z,40.53
2022-10-19T09:10:02.413Z,121.35
2022-10-19T09:12:44.372Z,30.67
2022-10-19T09:15:16.849Z,29.67
2022-10-19T09:17:45.269Z,29.02
2022-10-19T09:20:20.492Z,29.98
2022-10-19T09:22:59.549Z,30.00
2022-10-19T09:25:30.676Z,31.15
2022-10-19T09:28:17.415Z,30.55
2022-10-19T09:30:49.272Z,28.98
2022-10-19T09:33:28.169Z,57.13
2022-10-19T09:35:58.189Z,41.13
2022-10-19T09:38:29.875Z,30.48
2022-10-19T09:40:59.346Z,30.73
2022-10-19T09:43:30.467Z,32.40
2022-10-19T09:46:11.706Z,29.60
2022-10-19T09:48:51.810Z,27.90
2022-10-19T09:51:22.068Z,28.77
2022-10-19T09:53:54.473Z,26.67
2022-10-19T09:56:25.796Z,25.83
2022-10-19T09:58:58.344Z,25.40
2022-10-19T10:01:41.877Z,24.33
2022-10-19T10:04:16.913Z,24.25
2022-10-19T10:06:48.243Z,23.48
2022-10-19T10:09:18.993Z,22.67
2022-10-19T10:11:50.822Z,22.63
2022-10-19T10:14:24.746Z,23.83
2022-10-19T10:16:57.472Z,22.55
2022-10-19T10:19:33.404Z,23.98
2022-10-19T10:22:04.544Z,23.02
2022-10-19T10:24:35.193Z,24.15
2022-10-19T10:27:07.312Z,24.45
2022-10-19T10:29:39.993Z,46.20
2022-10-19T10:34:54.009Z,26.40
2022-10-19T10:37:30.856Z,26.73
2022-10-19T10:40:03.675Z,28.30
2022-10-19T10:42:43.065Z,26.80
2022-10-19T10:45:21.396Z,26.63
2022-10-19T10:47:50.572Z,28.33
2022-10-19T10:50:24.475Z,26.98
2022-10-19T10:53:01.052Z,27.67
2022-10-19T10:55:31.576Z,29.08
2022-10-19T10:58:15.563Z,28.08
2022-10-19T11:00:48.134Z,29.98
2022-10-19T11:05:54.645Z,31.42
2022-10-19T11:08:33.143Z,31.65
2022-10-19T11:11:23.595Z,32.42
2022-10-19T11:14:00.610Z,32.40
2022-10-19T11:16:35.738Z,31.38
2022-10-19T11:19:16.826Z,34.58
2022-10-19T11:21:57.279Z,33.47
2022-10-19T11:24:36.795Z,42.00
2022-10-19T11:27:23.235Z,31.95
2022-10-19T11:30:04.640Z,35.05
2022-10-19T11:32:47.127Z,37.35
2022-10-19T11:35:54.120Z,34.80
2022-10-19T11:38:44.869Z,36.42
2022-10-19T11:41:32.171Z,34.80
2022-10-19T11:44:22.731Z,38.20
2022-10-19T11:47:19.755Z,37.42
2022-10-19T11:50:04.811Z,35.55
2022-10-19T11:52:46.190Z,37.58
2022-10-19T11:55:36.383Z,34.67
2022-10-19T11:58:24.437Z,43.60
2022-10-19T12:01:01.464Z,37.63
2022-10-19T12:04:15.255Z,41.33
2022-10-19T12:06:58.554Z,36.97
2022-10-19T12:09:44.300Z,35.65
2022-10-19T12:12:35.108Z,33.47
2022-10-19T12:15:26.131Z,81.32
2022-10-19T12:18:00.694Z,42.95
2022-10-19T12:20:35.953Z,34.80
2022-10-19T12:23:21.916Z,33.72
2022-10-19T12:25:51.344Z,34.17
2022-10-19T12:28:29.153Z,31.83
2022-10-19T12:30:59.136Z,29.85
2022-10-19T12:33:43.984Z,29.77
2022-10-19T12:36:26.488Z,29.75
2022-10-19T12:39:08.413Z,29.20
2022-10-19T12:41:45.923Z,29.50
2022-10-19T12:44:42.548Z,28.50
2022-10-19T12:47:15.947Z,27.35
2022-10-19T12:49:50.364Z,28.27
2022-10-19T12:52:42.222Z,28.05
2022-10-19T12:55:29.740Z,26.35
2022-10-19T12:58:02.733Z,25.17
2022-10-19T13:00:34.205Z,24.27
2022-10-19T13:03:07.801Z,22.85
2022-10-19T13:05:37.886Z,22.40
2022-10-19T13:08:12.074Z,22.45
2022-10-19T13:11:06.746Z,20.75
2022-10-19T13:14:04.772Z,20.33
2022-10-19T13:16:59.248Z,20.20
2022-10-19T13:19:27.901Z,19.92
2022-10-19T13:22:27.464Z,19.20
2022-10-19T13:25:27.930Z,17.92
2022-10-19T13:28:02.655Z,16.75
2022-10-19T13:31:06.103Z,15.82
2022-10-19T13:33:53.375Z,15.43
2022-10-19T13:36:23.645Z,14.60
2022-10-19T13:39:16.742Z,13.40
2022-10-19T13:44:36.654Z,13.68
2022-10-19T13:50:38.107Z,12.32
2022-10-19T13:53:31.079Z,12.15
2022-10-19T13:59:24.755Z,11.80
2022-10-19T14:02:31.715Z,11.68
2022-10-19T14:05:24.392Z,11.30
2022-10-19T14:08:06.827Z,10.57
2022-10-19T14:10:56.179Z,11.88
2022-10-19T14:13:25.195Z,11.15
2022-10-19T14:15:56.276Z,11.05
2022-10-19T14:18:29.682Z,11.80
2022-10-19T14:21:01.052Z,11.88
2022-10-19T14:23:32.640Z,11.82
2022-10-19T14:26:05.046Z,10.35
2022-10-19T14:28:34.889Z,11.45
2022-10-19T14:31:06.773Z,12.30
2022-10-19T14:33:41.338Z,11.60
2022-10-19T14:36:20.487Z,11.25
2022-10-19T14:38:54.500Z,10.70
2022-10-19T14:41:32.247Z,11.20
2022-10-19T14:44:02.876Z,10.32
2022-10-19T14:46:33.470Z,11.07
2022-10-19T14:49:05.909Z,9.77
2022-10-19T14:51:42.243Z,9.82
2022-10-19T14:54:20.277Z,10.60
2022-10-19T14:56:56.582Z,8.45
2022-10-19T14:59:30.397Z,9.13
2022-10-19T15:02:02.178Z,8.40
2022-10-19T15:04:35.704Z,8.33
2022-10-19T15:07:17.971Z,8.68
2022-10-19T15:09:54.719Z,8.27
2022-10-19T15:12:30.548Z,8.35
2022-10-19T15:14:59.275Z,8.43
2022-10-19T15:17:31.137Z,8.43
2022-10-19T15:20:01.998Z,8.30
2022-10-19T15:22:41.813Z,8.48
2022-10-19T15:25:32.671Z,10.02
2022-10-19T15:28:22.149Z,7.70
2022-10-19T15:31:01.476Z,8.25
2022-10-19T15:33:30.190Z,8.35
2022-10-19T15:36:17.103Z,10.10
2022-10-19T15:38:48.531Z,9.27
2022-10-19T15:41:22.105Z,8.20
2022-10-19T15:43:52.995Z,9.15
2022-10-19T15:47:13.519Z,9.02
2022-10-19T15:49:59.131Z,8.32
2022-10-19T15:52:31.182Z,8.25
2022-10-19T15:55:01.464Z,8.40
2022-10-19T15:57:34.114Z,7.47
2022-10-19T16:00:12.860Z,8.20
2022-10-19T16:02:41.220Z,7.88
2022-10-19T16:05:11.503Z,7.85
2022-10-19T16:07:43.053Z,7.65
2022-10-19T16:10:18.437Z,8.23
2022-10-19T16:12:46.918Z,8.05
2022-10-19T16:15:16.707Z,8.20
2022-10-19T16:17:47.110Z,7.47
2022-10-19T16:20:16.112Z,8.38
2022-10-19T16:22:49.161Z,8.38
2022-10-19T16:25:18.796Z,8.70
2022-10-19T16:27:47.780Z,7.68
2022-10-19T16:30:16.857Z,7.28
2022-10-19T16:32:47.152Z,7.07
2022-10-19T16:35:16.106Z,8.88
2022-10-19T16:37:45.851Z,7.03
2022-10-19T16:40:14.355Z,10.15
2022-10-19T16:42:42.685Z,8.55
2022-10-19T16:45:12.794Z,8.80
2022-10-19T16:47:42.458Z,7.80
2022-10-19T16:50:12.685Z,8.15
2022-10-19T16:52:41.308Z,7.88
2022-10-19T16:55:11.555Z,7.30
2022-10-19T16:57:40.198Z,7.80
2022-10-19T17:00:10.552Z,7.30
2022-10-19T17:02:42.004Z,7.57
2022-10-19T17:05:12.905Z,7.13
2022-10-19T17:07:41.175Z,7.65
2022-10-19T17:10:12.162Z,7.85
2022-10-19T17:12:41.729Z,7.38
2022-10-19T17:18:02.304Z,8.30
2022-10-19T17:20:31.004Z,6.53
2022-10-19T17:22:59.506Z,7.20
2022-10-19T17:25:29.765Z,6.43
2022-10-19T17:27:58.858Z,6.95
2022-10-19T17:30:27.139Z,6.15
2022-10-19T17:32:55.822Z,5.75
2022-10-19T17:35:24.329Z,5.88
2022-10-19T17:37:52.945Z,6.55
2022-10-19T17:40:21.804Z,6.70
2022-10-19T17:42:51.596Z,6.65
2022-10-19T17:45:20.213Z,6.35
2022-10-19T17:47:48.968Z,6.75
2022-10-19T17:50:17.429Z,7.80
2022-10-19T17:52:45.968Z,7.43
2022-10-19T17:55:14.316Z,6.90
2022-10-19T17:57:43.007Z,6.43
2022-10-19T18:00:14.892Z,6.88
2022-10-19T18:02:45.990Z,6.68
2022-10-19T18:05:14.320Z,6.53
2022-10-19T18:07:45.804Z,7.32
2022-10-19T18:10:15.584Z,7.60
2022-10-19T18:12:43.919Z,8.85
2022-10-19T18:15:13.824Z,8.05
2022-10-19T18:17:42.578Z,7.35
2022-10-19T18:20:12.973Z,7.22
2022-10-19T18:25:11.771Z,9.02
2022-10-19T18:27:40.224Z,8.95
2022-10-19T18:30:10.371Z,8.27
2022-10-19T18:32:40.695Z,12.55
2022-10-19T18:35:10.852Z,10.32
2022-10-19T18:37:39.196Z,12.80
2022-10-19T18:40:10.606Z,10.93
2022-10-19T18:42:39.572Z,10.05
2022-10-19T18:45:10.082Z,9.02
2022-10-19T18:47:40.223Z,9.93
2022-10-19T18:50:09.456Z,9.02
2022-10-19T18:52:40.415Z,9.50
2022-10-19T18:55:10.223Z,10.30
2022-10-19T18:57:38.730Z,9.05
2022-10-19T19:00:09.286Z,9.93
2022-10-19T19:02:46.790Z,9.82
2022-10-19T19:05:16.714Z,9.80
2022-10-19T19:07:45.361Z,9.52
2022-10-19T19:10:14.659Z,9.70
2022-10-19T19:12:44.294Z,10.02
2022-10-19T19:15:13.378Z,10.43
2022-10-19T19:17:43.166Z,10.50
2022-10-19T19:20:12.662Z,11.25
2022-10-19T19:22:41.368Z,10.65
2022-10-19T19:25:10.775Z,11.18
2022-10-19T19:27:39.773Z,10.75
2022-10-19T19:30:10.941Z,11.27
2022-10-19T19:32:40.021Z,10.43
2022-10-19T19:35:10.906Z,11.80
2022-10-19T19:37:39.429Z,11.10
2022-10-19T19:40:10.265Z,10.95
2022-10-19T19:42:41.596Z,11.77
2022-10-19T19:45:11.632Z,12.00
2022-10-19T19:47:39.952Z,12.63
2022-10-19T19:50:11.420Z,11.45
2022-10-19T19:52:40.659Z,12.48
2022-10-19T19:55:10.335Z,11.82
2022-10-19T19:57:39.034Z,11.95
2022-10-19T20:00:10.756Z,12.13
2022-10-19T20:02:41.692Z,11.30
2022-10-19T20:05:12.473Z,11.38
2022-10-19T20:07:40.965Z,12.45
2022-10-19T20:10:10.539Z,11.73
2022-10-19T20:12:40.347Z,11.00
2022-10-19T20:15:11.141Z,12.32
2022-10-19T20:17:41.339Z,11.93
2022-10-19T20:20:14.502Z,11.63
2022-10-19T20:22:47.676Z,12.98
2022-10-19T20:25:16.722Z,12.68
2022-10-19T20:27:45.317Z,13.82
2022-10-19T20:30:14.045Z,13.18
2022-10-19T20:32:42.752Z,14.85
2022-10-19T20:35:16.582Z,15.13
2022-10-19T20:37:49.036Z,13.93
2022-10-19T20:40:18.488Z,14.75
2022-10-19T20:42:48.857Z,15.30
2022-10-19T20:45:17.767Z,14.50
2022-10-19T20:47:46.156Z,13.57
2022-10-19T20:50:19.242Z,14.95
2022-10-19T20:52:50.355Z,14.07
2022-10-19T20:55:20.492Z,15.15
2022-10-19T20:57:49.142Z,14.85
2022-10-19T21:00:18.472Z,14.38
2022-10-19T21:02:47.233Z,15.05
2022-10-19T21:05:17.266Z,14.82
2022-10-19T21:07:46.551Z,14.70
2022-10-19T21:10:15.457Z,14.80
2022-10-19T21:12:44.366Z,15.73
2022-10-19T21:15:13.245Z,14.75
2022-10-19T21:17:42.557Z,15.10
2022-10-19T21:20:13.446Z,15.07
2022-10-19T21:22:44.368Z,14.20
2022-10-19T21:25:13.144Z,16.38
2022-10-19T21:27:41.440Z,16.08
2022-10-19T21:30:11.199Z,15.43
2022-10-19T21:32:39.714Z,13.90
2022-10-19T21:35:09.180Z,15.45
2022-10-19T21:37:38.171Z,15.38
2022-10-19T21:40:11.390Z,16.73
2022-10-19T21:42:39.950Z,15.85
2022-10-19T21:45:29.425Z,16.40
2022-10-19T21:47:58.888Z,16.90
2022-10-19T21:50:28.409Z,16.85
2022-10-19T21:52:57.193Z,16.30
2022-10-19T21:55:29.616Z,16.45
2022-10-19T21:57:58.039Z,16.52
2022-10-19T22:00:26.308Z,16.30
2022-10-19T22:02:54.768Z,16.33
2022-10-19T22:05:23.289Z,15.60
2022-10-19T22:07:51.856Z,15.70
2022-10-19T22:10:20.556Z,15.20
2022-10-19T22:12:50.837Z,16.10
2022-10-19T22:15:19.741Z,15.45
2022-10-19T22:17:48.585Z,16.10
2022-10-19T22:20:17.399Z,14.98
2022-10-19T22:22:46.096Z,16.88
2022-10-19T22:25:15.295Z,15.77
2022-10-19T22:27:43.851Z,15.90
2022-10-19T22:30:15.310Z,16.45
2022-10-19T22:32:43.656Z,16.95
2022-10-19T22:35:12.279Z,15.73
2022-10-19T22:37:40.625Z,16.70
2022-10-19T22:40:10.322Z,16.70
2022-10-19T22:42:38.926Z,17.25
2022-10-19T22:45:09.251Z,16.92
2022-10-19T22:47:39.253Z,16.05
2022-10-19T22:50:11.813Z,15.88
2022-10-19T22:55:09.989Z,17.55
2022-10-19T22:57:38.571Z,16.85
2022-10-19T23:00:09.043Z,17.02
2022-10-19T23:02:39.264Z,17.60
2022-10-19T23:05:08.582Z,16.42
2022-10-19T23:07:38.276Z,16.65
2022-10-19T23:10:08.292Z,16.52
2022-10-19T23:12:36.600Z,17.23
2022-10-19T23:15:05.960Z,16.90
2022-10-19T23:17:34.857Z,17.67
2022-10-19T23:20:05.443Z,16.60
2022-10-19T23:22:33.868Z,17.00
2022-10-19T23:25:14.978Z,17.50
2022-10-19T23:27:43.349Z,17.73
2022-10-19T23:30:13.041Z,19.48
2022-10-19T23:32:41.439Z,18.30
2022-10-19T23:35:11.864Z,17.35
2022-10-19T23:37:40.181Z,18.23
2022-10-19T23:40:10.296Z,18.45
2022-10-19T23:42:38.851Z,17.88
2022-10-19T23:45:08.891Z,17.52
2022-10-19T23:47:37.875Z,18.80
2022-10-19T23:50:08.103Z,19.25
2022-10-19T23:52:38.252Z,18.45
2022-10-19T23:55:08.481Z,19.15
2022-10-19T23:57:37.591Z,19.67
